createdAt,value
2018-11-06T00:00:32.571Z,7.48
2018-11-06T00:03:06.187Z,7.47
2018-11-06T00:05:34.627Z,7.09
2018-11-06T00:08:03.021Z,7.13
2018-11-06T00:10:31.450Z,7.14
2018-11-06T00:12:59.878Z,7.21
2018-11-06T00:15:28.848Z,7.19
2018-11-06T00:17:57.966Z,7.19
2018-11-06T00:20:26.417Z,7.14
2018-11-06T00:22:54.789Z,7.13
2018-11-06T00:25:24.159Z,7.11
2018-11-06T00:27:52.615Z,7.12
2018-11-06T00:30:21.035Z,7.06
2018-11-06T00:32:49.648Z,7.08
2018-11-06T00:35:18.051Z,7.06
2018-11-06T00:37:46.454Z,7.02
2018-11-06T00:40:14.951Z,6.89
2018-11-06T00:42:44.116Z,6.46
2018-11-06T00:45:14.757Z,6.34
2018-11-06T00:47:43.585Z,6.49
2018-11-06T00:50:12.729Z,6.53
2018-11-06T00:52:42.281Z,6.56
2018-11-06T00:55:11.339Z,6.54
2018-11-06T00:57:41.465Z,6.55
2018-11-06T01:00:14.145Z,6.55
2018-11-06T01:02:42.867Z,6.53
2018-11-06T01:05:12.174Z,6.41
2018-11-06T01:07:40.918Z,6.43
2018-11-06T01:10:10.304Z,6.47
2018-11-06T01:12:38.940Z,6.49
2018-11-06T01:15:08.773Z,6.50
2018-11-06T01:17:37.218Z,6.55
2018-11-06T01:20:07.833Z,6.55
2018-11-06T01:22:36.610Z,6.52
2018-11-06T01:25:06.433Z,6.51
2018-11-06T01:27:34.876Z,6.49
2018-11-06T01:30:03.460Z,6.44
2018-11-06T01:32:31.982Z,6.43
2018-11-06T01:35:00.426Z,6.44
2018-11-06T01:37:28.863Z,6.44
2018-11-06T01:39:57.308Z,6.44
2018-11-06T01:42:25.722Z,6.42
2018-11-06T01:44:54.235Z,6.42
2018-11-06T01:47:23.566Z,6.43
2018-11-06T01:49:51.992Z,6.40
2018-11-06T01:52:21.125Z,6.38
2018-11-06T01:54:49.641Z,6.41
2018-11-06T01:57:18.136Z,6.38
2018-11-06T01:59:46.578Z,6.34
2018-11-06T02:02:15.035Z,6.37
2018-11-06T02:04:43.487Z,6.36
2018-11-06T02:07:12.028Z,6.34
2018-11-06T02:09:40.519Z,6.33
2018-11-06T02:12:08.982Z,6.28
2018-11-06T02:14:37.547Z,6.30
2018-11-06T02:17:06.045Z,6.26
2018-11-06T02:19:34.513Z,6.23
2018-11-06T02:22:02.930Z,6.24
2018-11-06T02:24:31.411Z,6.17
2018-11-06T02:26:59.785Z,6.22
2018-11-06T02:29:28.298Z,6.21
2018-11-06T02:31:57.719Z,6.06
2018-11-06T02:34:26.169Z,5.94
2018-11-06T02:36:55.041Z,5.92
2018-11-06T02:39:23.429Z,6.02
2018-11-06T02:41:51.904Z,6.04
2018-11-06T02:44:20.396Z,6.05
2018-11-06T02:46:48.936Z,5.99
2018-11-06T02:49:18.035Z,6.02
2018-11-06T02:51:46.719Z,5.85
2018-11-06T02:54:15.273Z,5.63
2018-11-06T02:56:43.645Z,5.64
2018-11-06T02:59:12.857Z,5.72
2018-11-06T03:01:41.364Z,5.72
2018-11-06T03:04:09.725Z,5.76
2018-11-06T03:06:38.250Z,5.80
2018-11-06T03:09:07.517Z,5.81
2018-11-06T03:11:36.010Z,5.72
2018-11-06T03:14:04.995Z,5.73
2018-11-06T03:16:33.515Z,5.73
2018-11-06T03:19:01.948Z,5.74
2018-11-06T03:21:30.911Z,5.76
2018-11-06T03:23:59.350Z,5.81
2018-11-06T03:26:28.619Z,5.93
2018-11-06T03:28:57.351Z,5.86
2018-11-06T03:31:25.891Z,5.88
2018-11-06T03:33:55.343Z,5.93
2018-11-06T03:36:24.862Z,6.04
2018-11-06T03:38:53.308Z,6.22
2018-11-06T03:41:21.830Z,6.28
2018-11-06T03:43:51.244Z,6.30
2018-11-06T03:46:19.676Z,6.28
2018-11-06T03:48:48.127Z,6.29
2018-11-06T03:51:16.600Z,6.30
2018-11-06T03:53:45.102Z,6.34
2018-11-06T03:56:13.566Z,6.36
2018-11-06T03:58:42.004Z,6.36
2018-11-06T04:01:10.485Z,6.37
2018-11-06T04:03:38.897Z,6.38
2018-11-06T04:06:07.362Z,6.40
2018-11-06T04:08:35.782Z,6.42
2018-11-06T04:11:04.191Z,6.42
2018-11-06T04:13:32.534Z,6.41
2018-11-06T04:16:01.003Z,6.42
2018-11-06T04:18:29.427Z,6.44
2018-11-06T04:20:57.835Z,6.44
2018-11-06T04:23:26.757Z,6.39
2018-11-06T04:25:55.207Z,6.30
2018-11-06T04:28:23.684Z,6.23
2018-11-06T04:30:52.042Z,6.22
2018-11-06T04:33:20.592Z,6.20
2018-11-06T04:35:48.959Z,6.23
2018-11-06T04:38:17.381Z,6.19
2018-11-06T04:40:45.763Z,6.19
2018-11-06T04:43:14.189Z,6.11
2018-11-06T04:45:42.604Z,6.01
2018-11-06T04:48:11.034Z,5.94
2018-11-06T04:50:39.499Z,5.94
2018-11-06T04:53:07.928Z,5.91
2018-11-06T04:55:36.410Z,5.95
2018-11-06T04:58:04.824Z,5.96
2018-11-06T05:00:33.270Z,5.97
2018-11-06T05:03:01.691Z,6.01
2018-11-06T05:05:30.171Z,6.00
2018-11-06T05:07:59.404Z,5.98
2018-11-06T05:10:28.513Z,6.02
2018-11-06T05:12:56.952Z,6.00
2018-11-06T05:15:25.424Z,5.98
2018-11-06T05:17:53.856Z,5.98
2018-11-06T05:20:22.258Z,5.96
2018-11-06T05:22:50.630Z,5.98
2018-11-06T05:25:19.092Z,6.01
2018-11-06T05:27:48.794Z,6.06
2018-11-06T05:30:17.753Z,6.03
2018-11-06T05:32:46.565Z,6.16
2018-11-06T05:35:15.210Z,6.26
2018-11-06T05:37:44.852Z,6.24
2018-11-06T05:40:24.451Z,6.24
2018-11-06T05:42:52.973Z,6.23
2018-11-06T05:45:21.498Z,6.25
2018-11-06T05:47:49.975Z,6.22
2018-11-06T05:50:18.441Z,6.20
2018-11-06T05:52:47.323Z,6.13
2018-11-06T05:55:15.726Z,6.19
2018-11-06T05:57:44.226Z,6.18
2018-11-06T06:00:12.637Z,6.13
2018-11-06T06:02:41.071Z,6.09
2018-11-06T06:05:09.579Z,6.11
2018-11-06T06:07:38.041Z,6.09
2018-11-06T06:10:07.002Z,6.04
2018-11-06T06:12:36.786Z,5.97
2018-11-06T06:15:06.109Z,5.96
2018-11-06T06:17:34.507Z,5.92
2018-11-06T06:20:15.890Z,5.84
2018-11-06T06:22:44.421Z,5.81
2018-11-06T06:25:12.784Z,5.83
2018-11-06T06:27:43.385Z,5.86
2018-11-06T06:30:14.468Z,5.88
2018-11-06T06:32:43.221Z,5.89
2018-11-06T06:35:12.348Z,5.86
2018-11-06T06:37:48.007Z,5.88
2018-11-06T06:40:17.315Z,5.88
2018-11-06T06:42:47.428Z,5.86
2018-11-06T06:45:19.124Z,5.85
2018-11-06T06:47:47.586Z,5.81
2018-11-06T06:50:17.384Z,5.84
2018-11-06T06:52:46.515Z,5.87
2018-11-06T06:55:15.898Z,5.92
2018-11-06T06:57:45.426Z,5.95
2018-11-06T07:00:18.746Z,5.97
2018-11-06T07:02:47.254Z,5.99
2018-11-06T07:05:20.011Z,6.01
2018-11-06T07:07:48.467Z,6.07
2018-11-06T07:10:18.381Z,6.13
2018-11-06T07:12:47.769Z,6.17
2018-11-06T07:15:17.360Z,6.26
2018-11-06T07:17:46.786Z,6.36
2018-11-06T07:20:17.457Z,6.38
2018-11-06T07:22:45.990Z,6.50
2018-11-06T07:25:14.873Z,6.63
2018-11-06T07:27:44.400Z,6.83
2018-11-06T07:30:15.257Z,7.02
2018-11-06T07:32:44.349Z,7.22
2018-11-06T07:35:13.704Z,7.36
2018-11-06T07:37:42.441Z,7.56
2018-11-06T07:40:12.210Z,7.75
2018-11-06T07:42:40.850Z,8.03
2018-11-06T07:45:16.573Z,8.35
2018-11-06T07:47:45.023Z,8.73
2018-11-06T07:50:14.284Z,8.91
2018-11-06T07:52:42.870Z,9.22
2018-11-06T07:55:13.899Z,9.64
2018-11-06T07:57:42.627Z,10.06
2018-11-06T08:00:17.612Z,10.49
2018-11-06T08:02:47.047Z,10.75
2018-11-06T08:05:16.129Z,11.03
2018-11-06T08:07:45.378Z,11.64
2018-11-06T08:10:14.260Z,11.77
2018-11-06T08:12:44.956Z,12.09
2018-11-06T08:15:13.827Z,11.89
2018-11-06T08:17:43.580Z,11.80
2018-11-06T08:20:12.110Z,12.17
2018-11-06T08:22:40.578Z,11.83
2018-11-06T08:25:10.637Z,11.92
2018-11-06T08:27:40.033Z,11.66
2018-11-06T08:30:09.364Z,11.97
2018-11-06T08:32:38.177Z,12.48
2018-11-06T08:35:08.651Z,12.56
2018-11-06T08:37:37.202Z,12.75
2018-11-06T08:40:06.621Z,12.68
2018-11-06T08:42:35.137Z,12.99
2018-11-06T08:45:03.749Z,13.73
2018-11-06T08:47:32.225Z,14.29
2018-11-06T08:50:00.728Z,14.62
2018-11-06T08:52:29.218Z,14.60
2018-11-06T08:54:57.779Z,14.27
2018-11-06T08:57:26.253Z,14.22
2018-11-06T08:59:54.826Z,14.19
2018-11-06T09:02:23.293Z,14.25
2018-11-06T09:04:51.807Z,13.95
2018-11-06T09:07:20.418Z,14.01
2018-11-06T09:09:48.929Z,14.49
2018-11-06T09:12:17.342Z,14.53
2018-11-06T09:14:46.063Z,14.65
2018-11-06T09:17:14.716Z,14.42
2018-11-06T09:19:43.164Z,14.71
2018-11-06T09:22:11.623Z,14.62
2018-11-06T09:24:40.119Z,15.20
2018-11-06T09:27:08.679Z,14.97
2018-11-06T09:29:37.212Z,15.00
2018-11-06T09:32:06.563Z,15.43
2018-11-06T09:34:35.033Z,15.71
2018-11-06T09:37:03.470Z,15.53
2018-11-06T09:39:31.916Z,16.03
2018-11-06T09:42:00.383Z,16.18
2018-11-06T09:44:28.818Z,16.21
2018-11-06T09:46:58.256Z,15.84
2018-11-06T09:49:26.652Z,15.71
2018-11-06T09:51:55.152Z,15.22
2018-11-06T09:54:23.551Z,15.10
2018-11-06T09:56:52.079Z,15.00
2018-11-06T09:59:20.624Z,14.75
2018-11-06T10:01:49.087Z,14.61
2018-11-06T10:04:17.613Z,14.54
2018-11-06T10:06:46.210Z,14.27
2018-11-06T10:09:14.601Z,14.26
2018-11-06T10:11:43.807Z,13.91
2018-11-06T10:14:12.292Z,13.93
2018-11-06T10:16:40.775Z,14.00
2018-11-06T10:19:09.194Z,13.90
2018-11-06T10:21:37.599Z,13.89
2018-11-06T10:24:06.435Z,14.08
2018-11-06T10:26:35.016Z,14.16
2018-11-06T10:29:03.438Z,14.09
2018-11-06T10:31:31.874Z,13.99
2018-11-06T10:34:00.329Z,14.10
2018-11-06T10:36:28.765Z,14.21
2018-11-06T10:38:57.257Z,14.23
2018-11-06T10:41:25.642Z,14.22
2018-11-06T10:43:54.949Z,14.32
2018-11-06T10:46:23.439Z,14.22
2018-11-06T10:48:52.153Z,14.28
2018-11-06T10:51:20.768Z,14.27
2018-11-06T10:53:49.360Z,14.27
2018-11-06T10:56:17.844Z,14.19
2018-11-06T10:58:46.321Z,14.35
2018-11-06T11:01:19.908Z,14.40
2018-11-06T11:03:53.667Z,14.40
2018-11-06T11:06:22.149Z,14.46
2018-11-06T11:08:50.903Z,14.51
2018-11-06T11:11:19.345Z,14.51
2018-11-06T11:13:48.099Z,14.66
2018-11-06T11:16:16.590Z,14.71
2018-11-06T11:18:45.235Z,14.66
2018-11-06T11:21:13.843Z,14.80
2018-11-06T11:23:42.714Z,14.81
2018-11-06T11:26:11.271Z,14.89
2018-11-06T11:28:39.771Z,14.93
2018-11-06T11:31:08.306Z,14.93
2018-11-06T11:33:36.766Z,15.00
2018-11-06T11:36:05.249Z,14.99
2018-11-06T11:38:33.714Z,15.04
2018-11-06T11:41:02.241Z,15.12
2018-11-06T11:43:30.775Z,15.23
2018-11-06T11:45:59.335Z,15.24
2018-11-06T11:48:28.263Z,15.13
2018-11-06T11:50:56.740Z,15.12
2018-11-06T11:53:25.155Z,15.11
2018-11-06T11:55:53.670Z,15.27
2018-11-06T11:58:22.138Z,15.39
2018-11-06T12:00:50.601Z,15.41
2018-11-06T12:03:19.618Z,15.49
2018-11-06T12:05:48.130Z,15.48
2018-11-06T12:08:16.638Z,15.52
2018-11-06T12:10:45.275Z,15.58
2018-11-06T12:13:14.208Z,15.52
2018-11-06T12:15:42.589Z,15.50
2018-11-06T12:18:11.035Z,15.50
2018-11-06T12:20:39.408Z,15.49
2018-11-06T12:23:07.815Z,15.56
2018-11-06T12:25:36.553Z,15.55
2018-11-06T12:28:05.657Z,15.53
2018-11-06T12:30:34.126Z,15.46
2018-11-06T12:33:02.596Z,15.43
2018-11-06T12:35:31.037Z,15.45
2018-11-06T12:38:00.054Z,15.43
2018-11-06T12:40:28.498Z,15.45
2018-11-06T12:42:57.013Z,15.44
2018-11-06T12:45:26.007Z,15.46
2018-11-06T12:47:54.505Z,15.48
2018-11-06T12:50:23.166Z,15.50
2018-11-06T12:52:51.581Z,15.50
2018-11-06T12:55:20.158Z,15.51
2018-11-06T12:57:48.592Z,15.51
2018-11-06T13:00:19.223Z,15.58
2018-11-06T13:02:47.718Z,15.64
2018-11-06T13:05:16.260Z,15.67
2018-11-06T13:07:45.460Z,15.73
2018-11-06T13:10:14.791Z,15.72
2018-11-06T13:12:43.780Z,15.77
2018-11-06T13:15:12.618Z,15.80
2018-11-06T13:17:41.970Z,15.85
2018-11-06T13:20:13.021Z,15.89
2018-11-06T13:22:43.158Z,15.92
2018-11-06T13:25:12.442Z,15.95
2018-11-06T13:27:41.900Z,16.01
2018-11-06T13:30:13.771Z,16.02
2018-11-06T13:32:42.946Z,16.04
2018-11-06T13:35:11.800Z,16.08
2018-11-06T13:37:40.317Z,16.09
2018-11-06T13:40:11.037Z,16.09
2018-11-06T13:42:39.998Z,16.14
2018-11-06T13:45:11.513Z,16.12
2018-11-06T13:47:39.836Z,16.15
2018-11-06T13:50:08.902Z,16.17
2018-11-06T13:52:37.635Z,16.19
2018-11-06T13:55:07.581Z,16.18
2018-11-06T13:57:36.795Z,16.10
2018-11-06T14:00:09.544Z,16.08
2018-11-06T14:02:38.178Z,16.08
2018-11-06T14:05:06.844Z,16.03
2018-11-06T14:07:35.633Z,16.04
2018-11-06T14:10:04.272Z,15.98
2018-11-06T14:12:32.903Z,15.84
2018-11-06T14:15:01.654Z,15.73
2018-11-06T14:17:30.153Z,15.71
2018-11-06T14:19:59.341Z,15.62
2018-11-06T14:22:27.993Z,15.62
2018-11-06T14:24:56.495Z,15.61
2018-11-06T14:27:25.047Z,15.60
2018-11-06T14:29:53.607Z,15.53
2018-11-06T14:32:21.990Z,15.48
2018-11-06T14:34:50.930Z,15.37
2018-11-06T14:37:19.410Z,15.33
2018-11-06T14:39:47.929Z,15.33
2018-11-06T14:42:16.348Z,15.30
2018-11-06T14:44:44.883Z,15.20
2018-11-06T14:47:13.353Z,15.11
2018-11-06T14:49:42.419Z,14.94
2018-11-06T14:52:10.871Z,14.95
2018-11-06T14:54:40.283Z,14.85
2018-11-06T14:57:08.724Z,14.78
2018-11-06T14:59:37.243Z,14.71
2018-11-06T15:02:06.215Z,14.66
2018-11-06T15:04:34.706Z,14.66
2018-11-06T15:07:03.263Z,14.61
2018-11-06T15:09:31.739Z,14.54
2018-11-06T15:12:00.312Z,14.60
2018-11-06T15:14:28.746Z,14.57
2018-11-06T15:16:57.212Z,14.56
2018-11-06T15:19:25.622Z,14.53
2018-11-06T15:21:54.029Z,14.45
2018-11-06T15:24:22.468Z,14.34
2018-11-06T15:26:50.877Z,14.37
2018-11-06T15:29:19.274Z,14.30
2018-11-06T15:31:47.674Z,14.25
2018-11-06T15:34:16.046Z,14.19
2018-11-06T15:36:44.507Z,14.16
2018-11-06T15:39:13.432Z,14.09
2018-11-06T15:41:42.383Z,14.08
2018-11-06T15:44:11.006Z,14.03
2018-11-06T15:46:39.434Z,13.97
2018-11-06T15:49:08.026Z,13.91
2018-11-06T15:51:36.389Z,13.88
2018-11-06T15:54:04.777Z,13.83
2018-11-06T15:56:33.199Z,13.80
2018-11-06T15:59:01.555Z,13.69
2018-11-06T16:01:29.958Z,13.62
2018-11-06T16:03:58.392Z,13.57
2018-11-06T16:06:26.794Z,13.53
2018-11-06T16:08:56.043Z,13.44
2018-11-06T16:11:24.592Z,13.37
2018-11-06T16:13:53.015Z,13.36
2018-11-06T16:16:21.406Z,13.30
2018-11-06T16:18:49.783Z,13.26
2018-11-06T16:21:18.285Z,13.21
2018-11-06T16:23:46.726Z,13.16
2018-11-06T16:26:15.731Z,13.13
2018-11-06T16:28:44.198Z,13.07
2018-11-06T16:31:12.572Z,13.04
2018-11-06T16:33:41.111Z,12.99
2018-11-06T16:36:09.495Z,12.93
2018-11-06T16:38:37.973Z,12.88
2018-11-06T16:41:06.937Z,12.85
2018-11-06T16:43:35.861Z,12.80
2018-11-06T16:46:05.203Z,12.76
2018-11-06T16:48:33.859Z,12.68
2018-11-06T16:51:02.269Z,12.61
2018-11-06T16:53:30.705Z,12.57
2018-11-06T16:55:59.178Z,12.59
2018-11-06T16:58:27.573Z,12.53
2018-11-06T17:00:56.129Z,12.51
2018-11-06T17:03:24.564Z,12.52
2018-11-06T17:05:53.050Z,12.56
2018-11-06T17:08:21.459Z,12.54
2018-11-06T17:10:49.911Z,12.48
2018-11-06T17:13:18.408Z,12.48
2018-11-06T17:15:46.818Z,12.49
2018-11-06T17:18:15.304Z,12.40
2018-11-06T17:20:43.859Z,12.35
2018-11-06T17:23:12.428Z,12.25
2018-11-06T17:25:42.284Z,12.16
2018-11-06T17:28:11.470Z,12.14
2018-11-06T17:30:40.979Z,12.11
2018-11-06T17:33:09.385Z,12.11
2018-11-06T17:35:38.245Z,11.96
2018-11-06T17:38:07.133Z,11.97
2018-11-06T17:40:36.323Z,11.90
2018-11-06T17:43:04.896Z,11.72
2018-11-06T17:45:33.481Z,11.61
2018-11-06T17:48:01.979Z,11.75
2018-11-06T17:50:30.394Z,11.77
2018-11-06T17:52:58.821Z,11.81
2018-11-06T17:55:27.276Z,11.79
2018-11-06T17:57:55.811Z,11.80
2018-11-06T18:00:24.631Z,11.78
2018-11-06T18:02:53.113Z,11.86
2018-11-06T18:05:23.175Z,11.97
2018-11-06T18:07:51.639Z,11.95
2018-11-06T18:10:20.785Z,12.09
2018-11-06T18:12:49.421Z,12.12
2018-11-06T18:15:19.158Z,12.28
2018-11-06T18:17:47.908Z,12.44
2018-11-06T18:20:16.552Z,12.40
2018-11-06T18:22:45.633Z,12.62
2018-11-06T18:25:14.635Z,12.76
2018-11-06T18:27:43.078Z,12.79
2018-11-06T18:30:14.079Z,12.85
2018-11-06T18:32:43.091Z,12.91
2018-11-06T18:35:12.858Z,13.00
2018-11-06T18:37:41.635Z,13.04
2018-11-06T18:40:13.211Z,13.02
2018-11-06T18:42:42.071Z,12.98
2018-11-06T18:45:10.594Z,12.94
2018-11-06T18:47:39.250Z,12.93
2018-11-06T18:50:10.858Z,12.99
2018-11-06T18:52:40.485Z,12.94
2018-11-06T18:55:12.707Z,12.96
2018-11-06T18:57:42.233Z,12.96
2018-11-06T19:00:14.687Z,12.90
2018-11-06T19:02:44.275Z,12.89
2018-11-06T19:05:12.672Z,12.82
2018-11-06T19:07:41.089Z,12.80
2018-11-06T19:10:10.845Z,12.83
2018-11-06T19:12:39.329Z,12.83
2018-11-06T19:15:11.428Z,12.82
2018-11-06T19:17:40.078Z,12.79
2018-11-06T19:20:09.386Z,12.72
2018-11-06T19:22:38.375Z,12.77
2018-11-06T19:25:07.457Z,12.78
2018-11-06T19:27:36.084Z,12.73
2018-11-06T19:30:05.918Z,12.67
2018-11-06T19:32:41.969Z,12.70
2018-11-06T19:35:11.021Z,12.62
2018-11-06T19:40:45.224Z,12.64
2018-11-06T19:43:14.564Z,12.56
2018-11-06T19:45:55.120Z,12.54
2018-11-06T19:48:35.710Z,12.55
2018-11-06T19:51:16.521Z,12.48
2018-11-06T19:53:58.734Z,12.44
2018-11-06T19:56:42.707Z,12.35
2018-11-06T19:59:26.710Z,12.40
2018-11-06T20:02:07.378Z,12.39
2018-11-06T20:04:50.476Z,12.29
2018-11-06T20:07:34.032Z,12.26
2018-11-06T20:10:06.139Z,12.14
2018-11-06T20:12:49.130Z,12.01
2018-11-06T20:15:29.380Z,11.98
2018-11-06T20:18:09.803Z,11.81
2018-11-06T20:20:54.022Z,11.68
2018-11-06T20:23:36.447Z,11.62
2018-11-06T20:26:15.742Z,11.56
2018-11-06T20:28:54.926Z,11.51
2018-11-06T20:31:34.421Z,11.45
2018-11-06T20:34:15.982Z,11.45
2018-11-06T20:36:56.396Z,11.47
2018-11-06T20:39:24.948Z,11.40
2018-11-06T20:41:58.981Z,11.44
2018-11-06T20:44:32.474Z,11.40
2018-11-06T20:47:08.494Z,11.34
2018-11-06T20:49:37.471Z,11.31
2018-11-06T20:52:06.052Z,11.44
2018-11-06T20:54:35.372Z,11.37
2018-11-06T20:57:04.875Z,11.32
2018-11-06T20:59:33.342Z,11.27
2018-11-06T21:02:01.727Z,11.29
2018-11-06T21:04:30.201Z,11.27
2018-11-06T21:06:58.814Z,11.25
2018-11-06T21:09:27.279Z,11.19
2018-11-06T21:11:56.200Z,11.17
2018-11-06T21:14:25.379Z,11.19
2018-11-06T21:16:53.942Z,11.26
2018-11-06T21:19:22.519Z,11.28
2018-11-06T21:21:51.337Z,11.31
2018-11-06T21:24:20.095Z,11.38
2018-11-06T21:26:50.911Z,11.37
2018-11-06T21:29:20.208Z,11.36
2018-11-06T21:31:49.176Z,11.28
2018-11-06T21:34:17.978Z,11.24
2018-11-06T21:36:46.627Z,11.21
2018-11-06T21:39:16.493Z,11.17
2018-11-06T21:41:45.473Z,11.16
2018-11-06T21:44:14.547Z,11.13
2018-11-06T21:46:43.221Z,11.04
2018-11-06T21:49:13.579Z,11.00
2018-11-06T21:51:42.226Z,11.02
2018-11-06T21:54:10.791Z,10.93
2018-11-06T21:56:42.706Z,10.96
2018-11-06T21:59:11.176Z,10.90
2018-11-06T22:01:40.151Z,10.88
2018-11-06T22:04:09.173Z,10.80
2018-11-06T22:06:37.877Z,10.80
2018-11-06T22:09:08.074Z,10.80
2018-11-06T22:11:36.988Z,10.80
2018-11-06T22:14:05.924Z,10.80
2018-11-06T22:16:34.741Z,10.79
2018-11-06T22:19:14.395Z,10.78
2018-11-06T22:21:43.284Z,10.77
2018-11-06T22:24:12.552Z,10.67
2018-11-06T22:26:41.466Z,10.60
2018-11-06T22:29:10.200Z,10.59
2018-11-06T22:31:39.242Z,10.55
2018-11-06T22:34:07.757Z,10.49
2018-11-06T22:36:36.455Z,10.40
2018-11-06T22:39:07.145Z,10.42
2018-11-06T22:41:38.506Z,10.36
2018-11-06T22:44:07.304Z,10.36
2018-11-06T22:46:36.156Z,10.31
2018-11-06T22:49:05.025Z,10.29
2018-11-06T22:51:33.940Z,10.26
2018-11-06T22:54:02.563Z,10.24
2018-11-06T22:56:31.768Z,10.22
2018-11-06T22:59:01.026Z,10.19
2018-11-06T23:01:40.583Z,10.16
2018-11-06T23:04:09.255Z,10.06
2018-11-06T23:06:37.808Z,10.00
2018-11-06T23:09:09.861Z,9.99
2018-11-06T23:11:38.693Z,10.02
2018-11-06T23:14:07.410Z,9.97
2018-11-06T23:16:38.223Z,9.80
2018-11-06T23:19:06.633Z,9.87
2018-11-06T23:21:35.456Z,9.83
2018-11-06T23:24:04.157Z,9.75
2018-11-06T23:26:32.783Z,9.66
2018-11-06T23:29:01.271Z,9.66
2018-11-06T23:31:29.914Z,9.55
2018-11-06T23:33:58.256Z,9.51
2018-11-06T23:36:26.636Z,9.56
2018-11-06T23:38:55.056Z,9.53
2018-11-06T23:41:23.453Z,9.51
2018-11-06T23:43:51.835Z,9.55
2018-11-06T23:46:20.179Z,9.57
2018-11-06T23:48:49.322Z,9.53
2018-11-06T23:51:17.742Z,9.52
2018-11-06T23:53:46.247Z,9.58
2018-11-06T23:56:14.683Z,9.61
2018-11-06T23:58:43.145Z,9.54
